Abbotsford Airport
CYXX : now visible

Airfield :











YOU CAN JOIN US ON...

 
LOGIN :

Register | Disclaimer

   EN    FR    IT 

 









Legend :    VFR   Marginal VFR   IFR   Intensive IFR   Very Intensive IFR
Visi :
Ceiling :
>= 8 km
>= 3000ft
5 to 8 km
1000 to 3000 ft
1500m to 5 km
500 to 1000 ft
800 to 1500m
200 to 500 ft
< 800m
< 200 ft
Symbols :   Thunderstorms  Fog  Heavy snow  Heavy precipitations  Wind > 20 kt







- Airport Elevation : 195 ft
- IATA code : YXX


CYXX - Abbotsford

CURRENT METAR :
  • 260400Z 00000KT 15SM SKC 18/11 A3020 RMK SLP228 DENSITY ALT 300FT

EXPIRED METARs :
  • 260300Z 25004KT 30SM FEW050TCU FEW100 19/11 A3018 RMK TCU1AC1 SLP222 DENSITY ALT 500FT
  • 260200Z 25007KT 25SM FEW050TCU SCT100 21/11 A3018 RMK TCU2AC1 SLP221 DENSITY ALT 700FT

TAF TAF CYXX
Valid from the 26 at 00:00 until the 27 at 00:00 UTC


252338Z 2600/2624 24008KT P6SM SCT050
TEMPO 2600/2606 BKN050
FM260600 25006KT P6SM FEW050
BECMG 2619/2621 25008KT RMK NXT FCST BY 260600Z
No reported NOTAMs for that airfield.



MET'MAP, your aeronautical weather chart ! - Copyright ORBIFLY December 2007 - Disclaimer

ORBIFLY MET'MAP TEAM :

Programming & Development : Alexandra Zaïnal
Concept & Development : Baudouin d'Aumeries
Co-Development & Prog : Marc-Olivier Méhu
Technical & hardware support : Manuel Goepfert

Contact : metmap@orbifly.com




SOURCES & CREDITS :

   NOAA       Earth
Advisory